Time;durP1;ratioP1;P1;durP2;ratioP2;P2;SDS_P1;SDS_P2;PMS_P1;PMS_P2;Temp;Humidity;BMP_temperature;BMP_pressure;BME280_temperature;BME280_humidity;BME280_pressure;Samples;Min_cycle;Max_cycle;Signal;HPM_P1;HPM_P2
2022/01/16 00:00:19;;;;;;;67.77;38.60;;;3.00;99.90;;;;;;5032806;28;20484;-89
2022/01/16 00:05:35;;;;;;;64.77;37.87;;;3.20;99.90;;;;;;5033302;28;20412;-86
2022/01/16 00:08:31;;;;;;;63.70;39.03;;;3.20;99.90;;;;;;5033627;28;20495;-90
2022/01/16 00:10:59;;;;;;;64.40;36.93;;;3.30;99.90;;;;;;5034578;28;20950;-88
2022/01/16 00:13:32;;;;;;;69.60;38.63;;;3.30;99.90;;;;;;5033544;28;20448;-89
2022/01/16 00:16:02;;;;;;;65.50;37.63;;;3.30;99.90;;;;;;5033654;28;20460;-87
2022/01/16 00:18:48;;;;;;;65.53;38.77;;;3.30;99.90;;;;;;5033484;28;20448;-87
2022/01/16 00:21:18;;;;;;;63.20;38.30;;;3.30;99.90;;;;;;5033465;28;20476;-89
2022/01/16 00:23:48;;;;;;;58.70;37.70;;;3.40;99.90;;;;;;5033949;28;20433;-88
2022/01/16 00:26:18;;;;;;;65.17;37.83;;;3.50;99.90;;;;;;5053065;28;20439;-88
2022/01/16 00:28:45;;;;;;;69.23;39.37;;;3.50;99.90;;;;;;5053699;28;20443;-89
2022/01/16 00:31:15;;;;;;;62.30;37.70;;;3.40;99.90;;;;;;5053564;28;20485;-88
2022/01/16 00:33:45;;;;;;;66.10;39.57;;;3.40;99.90;;;;;;5036530;28;20558;-89
2022/01/16 00:36:19;;;;;;;68.37;40.70;;;3.40;99.90;;;;;;5053859;28;20428;-90
2022/01/16 00:38:49;;;;;;;67.07;40.17;;;3.40;99.90;;;;;;5054160;28;20471;-91
2022/01/16 00:41:17;;;;;;;65.00;39.57;;;3.50;99.90;;;;;;5054162;28;20638;-90
2022/01/16 00:43:44;;;;;;;57.17;37.00;;;3.30;99.90;;;;;;5056620;28;20451;-90
2022/01/16 00:46:11;;;;;;;66.00;40.23;;;3.50;99.90;;;;;;5058817;28;20432;-91
2022/01/16 00:48:38;;;;;;;66.90;41.27;;;3.50;99.90;;;;;;5058130;28;20570;-91
2022/01/16 00:51:05;;;;;;;61.57;39.50;;;3.40;99.90;;;;;;5058444;28;20435;-91
2022/01/16 00:53:32;;;;;;;65.17;40.13;;;3.20;99.90;;;;;;5058095;28;20807;-92
2022/01/16 00:56:05;;;;;;;61.90;38.70;;;3.40;99.90;;;;;;5040008;28;20505;-90
2022/01/16 00:58:31;;;;;;;67.87;46.20;;;3.30;99.90;;;;;;5057864;28;20479;-89
2022/01/16 01:00:58;;;;;;;68.17;41.87;;;3.20;99.90;;;;;;5058087;28;20236;-89
2022/01/16 01:03:26;;;;;;;69.07;40.10;;;3.20;99.90;;;;;;5057887;28;20555;-89
2022/01/16 01:05:53;;;;;;;64.40;40.23;;;3.20;99.90;;;;;;5058107;28;20493;-93
2022/01/16 01:08:20;;;;;;;65.83;40.47;;;3.10;99.90;;;;;;5058192;28;20450;-89
2022/01/16 01:10:51;;;;;;;64.37;38.23;;;3.30;99.90;;;;;;5060919;28;20470;-88
2022/01/16 01:13:23;;;;;;;60.83;38.50;;;3.30;99.90;;;;;;5063518;28;20440;-89
2022/01/16 01:15:58;;;;;;;60.73;37.30;;;3.20;99.90;;;;;;5065957;28;20474;-89
2022/01/16 01:18:25;;;;;;;62.80;40.13;;;3.10;99.90;;;;;;5047414;28;20861;-87
2022/01/16 01:20:52;;;;;;;60.57;37.77;;;3.20;99.90;;;;;;5065893;28;20475;-88
2022/01/16 01:23:19;;;;;;;59.90;38.03;;;3.20;99.90;;;;;;5065396;28;20459;-89
2022/01/16 01:25:47;;;;;;;63.70;38.57;;;3.20;99.90;;;;;;5052234;28;20440;-90
2022/01/16 01:28:15;;;;;;;58.70;37.73;;;3.20;99.90;;;;;;5027072;28;20448;-89
2022/01/16 01:30:45;;;;;;;60.77;37.77;;;3.30;99.90;;;;;;5043220;28;20445;-87
2022/01/16 01:33:14;;;;;;;67.45;44.92;;;3.40;99.90;;;;;;5041890;28;20435;-92
2022/01/16 01:35:41;;;;;;;60.30;40.63;;;3.50;99.90;;;;;;5024900;28;20213;-91
2022/01/16 01:38:10;;;;;;;66.67;40.43;;;3.50;99.90;;;;;;5048808;28;20483;-89
2022/01/16 01:40:38;;;;;;;60.13;37.53;;;3.40;99.90;;;;;;5055481;28;20819;-90
2022/01/16 01:51:02;;;;;;;56.93;37.60;;;3.40;99.90;;;;;;5036878;28;20466;-90
2022/01/16 01:51:32;;;;;;;55.67;35.50;;;3.40;99.90;;;;;;5056571;28;20423;-91
2022/01/16 01:53:59;;;;;;;60.83;37.67;;;3.40;99.90;;;;;;5057311;28;20452;-90
2022/01/16 01:56:27;;;;;;;57.13;37.13;;;3.40;99.90;;;;;;5056084;28;20444;-90
2022/01/16 01:58:57;;;;;;;60.83;37.77;;;3.50;99.90;;;;;;5056315;28;20483;-91
2022/01/16 02:01:26;;;;;;;61.37;37.47;;;3.50;99.90;;;;;;5055630;28;20985;-92
2022/01/16 02:03:54;;;;;;;65.07;35.77;;;3.50;99.90;;;;;;5057043;28;20447;-91
2022/01/16 02:06:27;;;;;;;61.27;38.00;;;3.50;99.90;;;;;;5056754;28;20454;-91
2022/01/16 02:08:56;;;;;;;63.40;36.77;;;3.50;99.90;;;;;;5056721;28;20470;-92
2022/01/16 02:11:26;;;;;;;63.53;36.83;;;3.50;99.90;;;;;;5056749;28;20562;-91
2022/01/16 02:14:00;;;;;;;59.83;36.10;;;3.50;99.90;;;;;;5056763;28;20466;-90
2022/01/16 02:33:23;;;;;;;61.07;37.33;;;2.90;99.90;;;;;;5035233;28;20441;-90
2022/01/16 02:35:51;;;;;;;60.23;37.57;;;2.90;99.90;;;;;;5035477;28;20444;-91
2022/01/16 02:38:21;;;;;;;61.47;38.63;;;2.80;99.90;;;;;;5034624;28;20476;-92
2022/01/16 02:40:55;;;;;;;63.77;39.57;;;2.90;99.90;;;;;;5035222;28;20496;-89
2022/01/16 02:43:30;;;;;;;76.03;45.55;;;2.90;99.90;;;;;;5034624;28;20497;-90
2022/01/16 02:46:36;;;;;;;60.67;39.57;;;2.80;99.90;;;;;;5035207;28;20634;-90
2022/01/16 02:48:48;;;;;;;65.03;39.40;;;2.70;99.90;;;;;;5034865;28;20429;-91
2022/01/16 02:51:17;;;;;;;63.03;39.13;;;2.60;99.90;;;;;;5017589;28;20507;-88
2022/01/16 02:53:46;;;;;;;70.17;40.60;;;2.60;99.90;;;;;;5035202;28;20457;-90
2022/01/16 02:56:15;;;;;;;64.40;40.60;;;2.60;99.90;;;;;;5035225;28;20448;-89
2022/01/16 02:58:43;;;;;;;71.23;42.60;;;2.70;99.90;;;;;;5034847;28;20433;-92
2022/01/16 03:01:10;;;;;;;69.47;41.70;;;2.70;99.90;;;;;;5034834;28;20495;-91
2022/01/16 03:03:37;;;;;;;72.83;42.20;;;2.70;99.90;;;;;;5034366;28;20452;-88
2022/01/16 03:06:04;;;;;;;70.33;40.10;;;2.70;99.90;;;;;;5034763;28;20459;-88
2022/01/16 03:08:31;;;;;;;65.63;40.37;;;2.70;99.90;;;;;;5034379;28;20449;-90
2022/01/16 03:11:13;;;;;;;68.57;40.77;;;2.60;99.90;;;;;;5034460;28;20456;-89
2022/01/16 03:13:41;;;;;;;68.50;39.53;;;2.60;99.90;;;;;;5034429;28;20449;-89
2022/01/16 03:16:08;;;;;;;73.53;41.40;;;2.50;99.90;;;;;;5034773;28;20437;-88
2022/01/16 03:24:04;;;;;;;72.63;41.23;;;2.50;99.90;;;;;;5034562;28;20651;-90
2022/01/16 03:26:32;;;;;;;73.43;40.70;;;2.60;99.90;;;;;;5041096;28;20521;-91
2022/01/16 03:28:59;;;;;;;73.00;42.17;;;2.60;99.90;;;;;;5054176;28;20452;-90
2022/01/16 03:31:26;;;;;;;75.93;41.23;;;2.60;99.90;;;;;;5054402;28;20420;-90
2022/01/16 03:33:54;;;;;;;70.63;40.60;;;2.70;99.90;;;;;;5054351;28;20450;-90
2022/01/16 03:36:21;;;;;;;69.70;42.00;;;2.70;99.90;;;;;;5053884;28;20973;-89
2022/01/16 03:38:48;;;;;;;66.63;40.53;;;2.70;99.90;;;;;;5054305;28;20470;-91
2022/01/16 03:41:15;;;;;;;74.53;41.40;;;2.80;99.90;;;;;;5053921;28;20494;-88
2022/01/16 03:43:43;;;;;;;70.60;39.90;;;2.80;99.90;;;;;;5036151;28;20953;-89
2022/01/16 03:46:10;;;;;;;73.17;40.20;;;2.80;99.90;;;;;;5053983;28;20467;-91
2022/01/16 03:48:37;;;;;;;72.83;39.83;;;2.80;99.90;;;;;;5054063;28;20855;-90
2022/01/16 03:51:04;;;;;;;72.07;39.90;;;2.70;99.90;;;;;;5054356;28;20436;-90
2022/01/16 03:53:30;;;;;;;72.70;39.73;;;2.60;99.90;;;;;;5053165;28;20466;-91
2022/01/16 03:55:57;;;;;;;71.37;39.63;;;2.70;99.90;;;;;;5064347;28;20450;-91
2022/01/16 03:58:24;;;;;;;77.57;41.97;;;2.80;99.90;;;;;;5062882;28;20447;-90
2022/01/16 04:00:52;;;;;;;69.73;38.67;;;2.60;99.90;;;;;;5063075;28;20498;-89
2022/01/16 04:03:19;;;;;;;77.63;39.63;;;2.70;99.90;;;;;;5035641;28;20452;-91
2022/01/16 04:05:46;;;;;;;68.80;38.27;;;2.70;99.90;;;;;;5053349;28;20455;-88
2022/01/16 04:08:13;;;;;;;74.30;41.63;;;2.60;99.90;;;;;;5053850;28;20451;-92
2022/01/16 04:10:40;;;;;;;77.47;41.70;;;2.50;99.90;;;;;;5053294;28;20464;-91
2022/01/16 04:13:08;;;;;;;74.60;41.37;;;2.50;99.90;;;;;;5053678;28;20451;-90
2022/01/16 04:15:34;;;;;;;75.57;40.70;;;2.60;99.90;;;;;;5053663;28;20443;-91
2022/01/16 04:18:07;;;;;;;72.23;40.93;;;2.50;99.90;;;;;;5055052;28;20815;-90
2022/01/16 04:20:35;;;;;;;79.77;40.83;;;2.50;99.90;;;;;;5057871;28;20443;-92
2022/01/16 04:23:04;;;;;;;78.60;42.17;;;2.50;99.90;;;;;;5057618;28;20461;-89
2022/01/16 04:25:31;;;;;;;77.23;41.30;;;2.50;99.90;;;;;;5057328;28;20833;-89
2022/01/16 04:27:58;;;;;;;77.83;41.37;;;2.50;99.90;;;;;;5043137;28;20920;-89
2022/01/16 04:30:25;;;;;;;82.27;41.53;;;2.50;99.90;;;;;;5037345;28;20448;-90
2022/01/16 04:32:51;;;;;;;99.80;60.53;;;2.50;99.90;;;;;;5036652;28;20430;-91
2022/01/16 04:35:20;;;;;;;85.33;44.97;;;2.60;99.90;;;;;;5037628;28;20286;-89
2022/01/16 04:37:47;;;;;;;85.77;43.90;;;2.80;99.90;;;;;;5037439;28;20476;-89
2022/01/16 04:40:15;;;;;;;82.97;41.63;;;2.70;99.90;;;;;;5036917;28;20452;-90
2022/01/16 04:45:27;;;;;;;87.97;42.23;;;2.80;99.90;;;;;;5037371;28;20435;-91
2022/01/16 04:47:55;;;;;;;84.43;40.50;;;3.00;99.90;;;;;;5037333;28;20448;-91
2022/01/16 04:50:25;;;;;;;85.40;40.23;;;2.90;99.90;;;;;;5019470;28;20460;-90
2022/01/16 04:52:52;;;;;;;78.80;39.37;;;3.00;99.90;;;;;;5037231;28;20928;-89
2022/01/16 04:55:23;;;;;;;80.63;39.40;;;3.00;99.90;;;;;;5036861;28;20448;-93
2022/01/16 04:57:50;;;;;;;87.60;39.87;;;2.90;99.90;;;;;;5036943;28;21094;-91
2022/01/16 05:00:17;;;;;;;83.17;40.60;;;2.90;99.90;;;;;;5037148;28;20462;-90
2022/01/16 05:02:44;;;;;;;84.40;39.83;;;2.90;99.90;;;;;;5037134;28;20491;-90
2022/01/16 05:05:11;;;;;;;75.47;38.53;;;2.90;99.90;;;;;;5037165;28;20943;-93
2022/01/16 05:07:40;;;;;;;96.70;51.80;;;3.00;99.90;;;;;;5036577;28;20438;-89
2022/01/16 05:10:08;;;;;;;87.70;41.27;;;3.10;99.90;;;;;;5036735;28;20585;-88
2022/01/16 05:12:37;;;;;;;85.20;38.77;;;3.10;99.90;;;;;;5037384;28;20447;-88
2022/01/16 05:17:50;;;;;;;83.77;37.00;;;3.00;99.90;;;;;;5036912;28;20439;-90
2022/01/16 05:20:17;;;;;;;74.93;34.17;;;3.00;99.90;;;;;;5036965;28;20452;-90
2022/01/16 05:22:46;;;;;;;80.13;35.87;;;2.90;99.90;;;;;;5036195;28;20487;-93
2022/01/16 05:25:15;;;;;;;71.70;33.87;;;2.90;99.90;;;;;;5036634;28;20456;-91
2022/01/16 05:27:44;;;;;;;86.27;36.60;;;2.90;99.90;;;;;;5036754;28;20464;-90
2022/01/16 05:30:11;;;;;;;83.43;33.83;;;2.90;99.90;;;;;;5042241;28;20451;-89
2022/01/16 05:32:38;;;;;;;83.90;36.90;;;3.00;99.90;;;;;;5056846;28;20459;-90
2022/01/16 05:35:06;;;;;;;84.40;35.10;;;3.00;99.90;;;;;;5056800;28;20447;-89
2022/01/16 05:37:33;;;;;;;88.53;36.63;;;3.10;99.90;;;;;;5056396;28;20467;-93
2022/01/16 05:40:02;;;;;;;78.13;34.10;;;3.10;99.90;;;;;;5056586;28;20459;-90
2022/01/16 05:42:29;;;;;;;94.70;38.67;;;3.10;99.90;;;;;;5056142;28;20465;-91
2022/01/16 05:44:56;;;;;;;78.80;35.97;;;3.20;99.90;;;;;;5056298;28;20459;-89
2022/01/16 05:47:23;;;;;;;81.90;35.43;;;3.20;99.90;;;;;;5056233;28;20452;-89
2022/01/16 05:49:49;;;;;;;84.80;37.80;;;3.20;99.90;;;;;;5056179;28;20455;-90
2022/01/16 05:52:16;;;;;;;88.33;37.23;;;3.20;99.90;;;;;;5055785;28;20517;-90
2022/01/16 05:54:43;;;;;;;89.20;38.70;;;3.20;99.90;;;;;;5056352;28;20931;-88
2022/01/16 05:57:12;;;;;;;82.57;37.50;;;3.20;99.90;;;;;;5056072;28;20447;-88
2022/01/16 05:59:38;;;;;;;85.83;37.30;;;3.30;99.90;;;;;;5056364;28;20443;-92
2022/01/16 06:02:06;;;;;;;81.23;38.03;;;3.50;99.90;;;;;;5048919;28;20491;-90
2022/01/16 06:04:32;;;;;;;96.80;40.03;;;3.50;99.90;;;;;;5055210;28;20443;-89
2022/01/16 06:07:00;;;;;;;82.70;36.37;;;3.50;99.90;;;;;;5053059;28;20467;-89
2022/01/16 06:09:27;;;;;;;82.07;37.83;;;3.60;99.90;;;;;;5054852;28;20543;-90
2022/01/16 06:11:55;;;;;;;87.00;38.23;;;3.70;99.90;;;;;;5055545;28;20466;-89
2022/01/16 06:14:24;;;;;;;84.30;38.10;;;3.70;99.90;;;;;;5055953;28;20822;-91
2022/01/16 06:16:52;;;;;;;80.87;38.10;;;3.70;99.90;;;;;;5055832;28;20452;-91
2022/01/16 06:19:20;;;;;;;89.50;40.37;;;3.70;99.90;;;;;;5055670;28;20447;-91
2022/01/16 06:21:48;;;;;;;84.13;40.63;;;3.80;99.90;;;;;;5058117;28;20483;-92
2022/01/16 06:24:23;;;;;;;85.60;40.10;;;3.90;99.90;;;;;;5068727;28;20455;-93
2022/01/16 06:26:51;;;;;;;85.47;37.80;;;4.00;99.90;;;;;;5050275;28;20454;-91
2022/01/16 06:29:20;;;;;;;79.57;38.67;;;3.90;99.90;;;;;;5068084;28;20447;-94
2022/01/16 06:31:49;;;;;;;78.40;37.40;;;3.90;99.90;;;;;;5065959;28;20508;-92
2022/01/16 06:34:19;;;;;;;81.97;37.33;;;4.00;99.90;;;;;;5068392;28;20444;-93
2022/01/16 06:36:46;;;;;;;78.67;36.07;;;4.00;99.90;;;;;;5067835;28;20474;-91
2022/01/16 06:39:14;;;;;;;87.33;37.97;;;3.90;99.90;;;;;;5067292;28;20455;-92
2022/01/16 06:41:41;;;;;;;80.67;37.73;;;3.80;99.90;;;;;;5047927;28;20581;-93
2022/01/16 06:44:08;;;;;;;90.20;37.50;;;3.90;99.90;;;;;;5065186;28;20475;-93
2022/01/16 06:46:35;;;;;;;80.23;38.13;;;3.80;99.90;;;;;;5069102;28;20475;-93
2022/01/16 06:49:10;;;;;;;84.07;36.33;;;3.90;99.90;;;;;;5069257;28;20476;-92
2022/01/16 06:51:38;;;;;;;84.17;37.67;;;3.80;99.90;;;;;;5065533;28;20458;-93
2022/01/16 06:54:06;;;;;;;85.00;37.20;;;3.90;99.90;;;;;;5068428;28;20474;-92
2022/01/16 06:56:36;;;;;;;97.15;52.00;;;3.90;99.90;;;;;;5067581;28;20453;-93
2022/01/16 06:59:04;;;;;;;89.70;42.37;;;3.80;99.90;;;;;;5052192;28;20209;-92
2022/01/16 07:01:31;;;;;;;92.20;40.90;;;3.80;99.90;;;;;;5071313;28;20479;-93
2022/01/16 07:03:59;;;;;;;88.40;40.73;;;3.80;99.90;;;;;;5053469;28;20448;-94
2022/01/16 07:06:30;;;;;;;79.87;37.97;;;3.90;99.90;;;;;;5071080;28;20466;-92
2022/01/16 07:08:57;;;;;;;89.57;39.73;;;3.70;99.90;;;;;;5070446;28;20439;-91
2022/01/16 07:11:25;;;;;;;87.93;41.30;;;3.60;99.90;;;;;;5069073;28;20470;-92
2022/01/16 07:13:55;;;;;;;97.43;45.13;;;3.60;99.90;;;;;;5068930;28;20535;-92
2022/01/16 07:16:25;;;;;;;94.93;45.50;;;3.50;99.90;;;;;;5067958;28;20439;-93
2022/01/16 07:18:56;;;;;;;96.73;44.87;;;3.60;99.90;;;;;;5067652;28;20447;-93
2022/01/16 07:21:23;;;;;;;99.67;46.00;;;3.60;99.90;;;;;;5067541;28;20471;-93
2022/01/16 07:23:53;;;;;;;100.43;44.93;;;3.50;99.90;;;;;;5067345;28;20458;-92
2022/01/16 07:26:23;;;;;;;98.93;44.27;;;3.40;99.90;;;;;;5065948;28;20448;-91
2022/01/16 07:28:52;;;;;;;104.53;46.00;;;3.40;99.90;;;;;;5066208;28;20486;-93
2022/01/16 07:31:20;;;;;;;111.30;53.85;;;3.50;99.90;;;;;;5056793;28;20431;-93
2022/01/16 07:34:06;;;;;;;104.07;47.00;;;3.50;99.90;;;;;;5045742;28;20219;-94
2022/01/16 07:36:40;;;;;;;97.33;45.33;;;3.40;99.90;;;;;;5033668;28;20437;-93
2022/01/16 07:39:16;;;;;;;97.77;43.33;;;3.40;99.90;;;;;;5050530;28;20457;-92
2022/01/16 07:41:46;;;;;;;91.17;40.63;;;3.50;99.90;;;;;;5052127;28;20468;-91
2022/01/16 07:44:20;;;;;;;96.47;41.57;;;3.30;99.90;;;;;;5051823;28;20508;-93
2022/01/16 07:46:49;;;;;;;91.80;38.80;;;3.20;99.90;;;;;;5051351;28;20445;-92
2022/01/16 07:49:19;;;;;;;90.50;38.47;;;3.20;99.90;;;;;;5050146;28;20961;-93
2022/01/16 07:51:47;;;;;;;87.07;38.50;;;3.30;99.90;;;;;;5046530;28;20453;-93
2022/01/16 07:54:20;;;;;;;85.03;36.77;;;3.20;99.90;;;;;;5043765;28;20440;-93
2022/01/16 07:56:50;;;;;;;74.87;33.97;;;3.10;99.90;;;;;;5042999;28;20562;-95
2022/01/16 07:59:17;;;;;;;83.80;35.83;;;3.00;99.90;;;;;;5030664;28;20506;-90
2022/01/16 08:01:50;;;;;;;80.20;33.83;;;3.00;99.90;;;;;;5048286;28;20466;-92
2022/01/16 08:04:19;;;;;;;74.93;34.77;;;3.10;99.90;;;;;;5047290;28;20462;-94
2022/01/16 08:06:56;;;;;;;74.40;33.17;;;3.00;99.90;;;;;;5048593;28;20464;-92
2022/01/16 08:09:26;;;;;;;73.53;30.93;;;3.00;99.90;;;;;;5047950;28;20460;-92
2022/01/16 08:11:54;;;;;;;70.07;31.13;;;3.10;99.90;;;;;;5048832;28;20523;-93
2022/01/16 08:14:21;;;;;;;84.43;32.77;;;3.10;99.90;;;;;;5047948;28;20452;-92
2022/01/16 08:16:52;;;;;;;79.70;32.10;;;3.20;99.90;;;;;;5047775;28;20472;-93
2022/01/16 08:19:19;;;;;;;71.80;32.50;;;3.20;99.90;;;;;;5046585;28;20475;-91
2022/01/16 08:21:52;;;;;;;72.60;32.07;;;3.20;99.90;;;;;;5047746;28;20513;-93
2022/01/16 08:24:20;;;;;;;79.93;34.17;;;3.20;99.90;;;;;;5048680;28;20444;-93
2022/01/16 08:26:51;;;;;;;73.33;33.77;;;3.20;99.90;;;;;;5048637;28;20515;-92
2022/01/16 08:29:22;;;;;;;75.33;34.33;;;3.10;99.90;;;;;;5030897;28;20436;-93
2022/01/16 08:31:54;;;;;;;73.90;33.67;;;3.20;99.90;;;;;;5055460;28;20950;-90
2022/01/16 08:34:45;;;;;;;81.57;34.13;;;3.30;99.90;;;;;;5070030;28;20447;-92
2022/01/16 08:37:16;;;;;;;89.20;36.17;;;3.20;99.90;;;;;;5070823;28;20474;-94
2022/01/16 08:39:51;;;;;;;85.00;35.00;;;3.20;99.90;;;;;;5072769;28;20463;-94
2022/01/16 08:42:54;;;;;;;88.87;36.17;;;3.20;99.90;;;;;;5072162;28;20528;-93
2022/01/16 08:45:52;;;;;;;104.90;53.15;;;3.20;99.90;;;;;;5068415;28;20440;-91
2022/01/16 08:48:21;;;;;;;95.93;39.93;;;3.20;99.90;;;;;;5071499;28;20233;-94
2022/01/16 08:50:52;;;;;;;83.50;37.07;;;3.30;99.90;;;;;;5071292;28;20448;-93
2022/01/16 08:53:20;;;;;;;87.13;35.53;;;3.40;99.90;;;;;;5055166;28;20444;-93
2022/01/16 08:55:58;;;;;;;84.80;37.37;;;3.30;99.90;;;;;;5053365;28;20474;-93
2022/01/16 08:58:49;;;;;;;82.97;37.30;;;3.40;99.90;;;;;;5070686;28;20444;-91
2022/01/16 09:01:46;;;;;;;97.73;40.10;;;3.50;99.90;;;;;;5070982;28;20456;-94
2022/01/16 09:04:21;;;;;;;92.30;38.70;;;3.20;99.90;;;;;;5069147;28;20474;-90
2022/01/16 09:06:50;;;;;;;87.50;38.43;;;3.20;99.90;;;;;;5072675;28;20467;-91
2022/01/16 09:09:31;;;;;;;90.70;39.93;;;3.30;99.90;;;;;;5072177;28;20477;-92
2022/01/16 09:11:59;;;;;;;86.77;39.00;;;3.30;99.90;;;;;;5068863;28;20479;-93
2022/01/16 09:14:26;;;;;;;90.00;39.97;;;3.30;99.90;;;;;;5068449;28;20482;-92
2022/01/16 09:16:54;;;;;;;83.97;39.10;;;3.60;99.90;;;;;;5065880;28;20452;-91
2022/01/16 09:19:23;;;;;;;88.07;39.90;;;3.60;99.90;;;;;;5064730;28;20435;-93
2022/01/16 09:22:02;;;;;;;88.33;39.10;;;3.70;99.90;;;;;;5062512;28;20439;-94
2022/01/16 09:24:35;;;;;;;88.77;38.27;;;3.70;99.90;;;;;;5064686;28;20461;-94
2022/01/16 09:27:06;;;;;;;77.87;36.53;;;3.70;99.90;;;;;;5063768;28;20557;-90
2022/01/16 09:29:36;;;;;;;82.50;36.93;;;3.60;99.90;;;;;;5062633;28;20463;-90
2022/01/16 09:32:13;;;;;;;81.80;37.47;;;3.60;99.90;;;;;;5063063;28;20467;-91
2022/01/16 09:34:44;;;;;;;78.23;37.37;;;3.60;99.90;;;;;;5065098;28;20456;-91
2022/01/16 09:37:16;;;;;;;84.90;39.20;;;3.60;99.90;;;;;;5064592;28;20463;-91
2022/01/16 09:39:45;;;;;;;78.80;37.73;;;3.50;99.90;;;;;;5063272;28;20462;-91
2022/01/16 09:42:16;;;;;;;76.23;37.63;;;3.50;99.90;;;;;;5063658;28;20511;-91
2022/01/16 09:44:49;;;;;;;80.27;38.50;;;3.50;99.90;;;;;;5062111;28;20447;-92
2022/01/16 09:47:23;;;;;;;79.90;37.77;;;3.40;99.90;;;;;;5056891;28;20486;-89
2022/01/16 09:49:58;;;;;;;79.23;39.60;;;3.30;99.90;;;;;;5053894;28;20535;-92
2022/01/16 09:52:32;;;;;;;75.60;38.00;;;3.40;99.90;;;;;;5058114;28;20906;-91
2022/01/16 09:55:06;;;;;;;73.80;39.17;;;3.50;99.90;;;;;;5058182;28;20458;-90
2022/01/16 09:57:39;;;;;;;90.43;52.25;;;3.50;99.90;;;;;;5056232;28;20440;-90
2022/01/16 10:00:12;;;;;;;74.40;39.90;;;3.60;99.90;;;;;;5057242;28;20226;-91
2022/01/16 10:02:42;;;;;;;75.33;38.10;;;3.50;99.90;;;;;;5057032;28;20483;-89
2022/01/16 10:05:29;;;;;;;67.47;36.80;;;3.50;99.90;;;;;;5056275;28;20542;-91
2022/01/16 10:07:58;;;;;;;64.53;34.03;;;3.60;99.90;;;;;;5056737;28;20459;-89
2022/01/16 10:10:32;;;;;;;65.00;36.20;;;3.60;99.90;;;;;;5056187;28;20450;-89
2022/01/16 10:13:20;;;;;;;59.20;34.57;;;3.60;99.90;;;;;;5056091;28;20462;-91
2022/01/16 10:15:54;;;;;;;61.77;34.57;;;3.60;99.90;;;;;;5055762;28;20463;-91
2022/01/16 10:18:38;;;;;;;56.77;32.73;;;3.40;99.90;;;;;;5055770;28;20443;-89
2022/01/16 10:21:32;;;;;;;56.53;32.80;;;3.40;99.90;;;;;;5056170;28;20448;-90
2022/01/16 10:24:19;;;;;;;60.27;33.93;;;3.50;99.90;;;;;;5055276;28;20483;-90
2022/01/16 10:26:52;;;;;;;52.93;29.90;;;3.50;99.90;;;;;;5038643;28;20447;-91
2022/01/16 10:29:21;;;;;;;60.73;32.83;;;3.40;99.90;;;;;;5039343;28;20444;-90
2022/01/16 10:32:12;;;;;;;53.53;32.37;;;3.30;99.90;;;;;;5020542;28;20592;-89
2022/01/16 10:34:42;;;;;;;56.40;32.43;;;3.20;99.90;;;;;;5037245;28;20452;-91
2022/01/16 10:37:23;;;;;;;49.23;29.23;;;3.30;99.90;;;;;;5037601;28;20460;-91
2022/01/16 10:40:00;;;;;;;47.27;27.30;;;3.30;99.90;;;;;;5039048;28;20468;-90
2022/01/16 10:42:34;;;;;;;47.33;28.73;;;3.30;99.90;;;;;;5038334;28;20451;-93
2022/01/16 10:45:38;;;;;;;46.33;28.43;;;3.20;99.90;;;;;;5038463;28;20445;-90
2022/01/16 10:48:11;;;;;;;47.73;29.20;;;3.40;99.90;;;;;;5040363;28;20459;-91
2022/01/16 10:50:44;;;;;;;42.63;25.90;;;3.40;99.90;;;;;;5021581;28;20531;-89
2022/01/16 10:53:19;;;;;;;50.07;29.70;;;3.40;99.90;;;;;;5036967;28;20513;-91
2022/01/16 10:56:01;;;;;;;46.50;27.87;;;3.30;99.90;;;;;;5042615;28;20807;-89
2022/01/16 10:58:41;;;;;;;47.60;28.90;;;3.30;99.90;;;;;;5037144;28;20440;-90
2022/01/16 11:01:33;;;;;;;50.77;28.13;;;3.40;99.90;;;;;;5039403;28;20456;-92
2022/01/16 11:04:20;;;;;;;49.33;28.60;;;3.40;99.90;;;;;;5053220;28;20480;-91
2022/01/16 11:07:11;;;;;;;46.97;28.03;;;3.30;99.90;;;;;;5050861;28;20503;-92
2022/01/16 11:10:20;;;;;;;57.45;36.08;;;3.40;99.90;;;;;;5049601;28;20468;-92
2022/01/16 11:13:23;;;;;;;52.07;29.67;;;3.50;99.90;;;;;;5040590;28;20191;-94
2022/01/16 11:15:56;;;;;;;50.70;29.27;;;3.50;99.90;;;;;;5049953;28;20444;-90
2022/01/16 11:18:35;;;;;;;56.47;31.07;;;3.50;99.90;;;;;;5048555;28;20447;-92
2022/01/16 11:21:13;;;;;;;51.90;29.60;;;3.60;99.90;;;;;;5048212;28;20448;-92
2022/01/16 11:23:59;;;;;;;53.93;30.47;;;3.80;99.90;;;;;;5039670;28;20488;-92
2022/01/16 11:26:27;;;;;;;58.77;31.67;;;3.80;99.90;;;;;;5043241;28;20570;-91
2022/01/16 11:29:14;;;;;;;55.23;30.40;;;3.90;99.90;;;;;;5044505;28;20457;-92
2022/01/16 11:31:49;;;;;;;53.87;29.97;;;3.90;99.90;;;;;;5027621;28;20480;-91
2022/01/16 11:34:23;;;;;;;58.43;31.87;;;3.80;99.90;;;;;;5053460;28;20481;-92
2022/01/16 11:36:56;;;;;;;55.03;31.37;;;3.90;99.90;;;;;;5064921;28;20791;-91
2022/01/16 11:39:23;;;;;;;58.10;30.13;;;3.90;99.90;;;;;;5067058;28;20458;-93
2022/01/16 11:41:54;;;;;;;56.40;30.63;;;3.90;99.90;;;;;;5064385;28;20455;-92
2022/01/16 11:44:28;;;;;;;51.20;29.33;;;4.00;99.90;;;;;;5063960;28;20479;-90
2022/01/16 11:47:03;;;;;;;54.07;28.80;;;4.00;99.90;;;;;;5064276;28;20463;-91
2022/01/16 11:49:34;;;;;;;51.67;29.43;;;4.10;99.90;;;;;;5063575;28;20451;-90
2022/01/16 11:52:12;;;;;;;55.57;30.63;;;4.10;99.90;;;;;;5065927;28;20458;-90
2022/01/16 11:54:44;;;;;;;61.03;31.70;;;4.20;99.90;;;;;;5059350;28;20443;-92
2022/01/16 11:57:22;;;;;;;53.07;28.53;;;4.30;99.90;;;;;;5040962;28;20442;-92
2022/01/16 12:00:12;;;;;;;49.73;29.60;;;4.30;99.90;;;;;;5058311;28;20451;-91
2022/01/16 12:02:44;;;;;;;47.90;28.20;;;4.30;99.90;;;;;;5058876;28;20445;-93
2022/01/16 12:05:22;;;;;;;52.40;28.23;;;4.20;99.90;;;;;;5058435;28;20210;-90
2022/01/16 12:08:08;;;;;;;47.47;27.67;;;4.30;99.90;;;;;;5060598;28;20485;-92
2022/01/16 12:10:50;;;;;;;47.60;28.67;;;4.30;99.90;;;;;;5059360;28;20451;-95
2022/01/16 12:13:43;;;;;;;50.70;27.47;;;4.40;99.90;;;;;;5060489;28;20462;-92
2022/01/16 12:16:47;;;;;;;53.00;27.80;;;4.30;99.90;;;;;;5060233;28;20450;-90
2022/01/16 12:19:51;;;;;;;50.70;27.70;;;4.40;99.90;;;;;;5061345;28;20259;-94
2022/01/16 12:22:43;;;;;;;54.55;29.58;;;4.40;99.90;;;;;;5062903;28;20497;-94
2022/01/16 12:25:18;;;;;;;52.30;27.97;;;4.50;99.90;;;;;;5053675;28;20226;-94
2022/01/16 12:27:54;;;;;;;46.60;27.43;;;4.50;99.90;;;;;;5047491;28;20450;-95
2022/01/16 12:30:48;;;;;;;49.17;27.17;;;4.50;99.90;;;;;;5063257;28;20538;-93
2022/01/16 12:34:01;;;;;;;46.77;26.17;;;4.40;99.90;;;;;;5066003;28;20459;-91
2022/01/16 12:37:20;;;;;;;49.67;27.97;;;4.50;99.90;;;;;;5076572;28;20218;-91
2022/01/16 12:40:01;;;;;;;49.30;27.30;;;4.60;99.90;;;;;;5069962;28;20455;-89
2022/01/16 12:45:51;;;;;;;53.63;27.67;;;4.60;99.90;;;;;;5075342;28;20430;-90
2022/01/16 12:48:19;;;;;;;48.13;26.77;;;4.60;99.90;;;;;;5057300;28;20199;-87
2022/01/16 12:50:53;;;;;;;48.57;27.77;;;4.70;99.90;;;;;;5062358;28;20211;-93
2022/01/16 12:53:35;;;;;;;45.73;26.90;;;4.70;99.90;;;;;;5029073;28;20210;-94
2022/01/16 12:56:36;;;;;;;48.70;26.67;;;4.60;99.90;;;;;;5048942;28;20452;-93
2022/01/16 12:59:18;;;;;;;49.47;27.45;;;4.50;99.90;;;;;;5043724;28;20846;-91
2022/01/16 13:01:49;;;;;;;55.67;28.27;;;4.60;99.90;;;;;;5043756;28;20238;-92
2022/01/16 13:04:24;;;;;;;52.87;27.53;;;4.70;99.90;;;;;;5057193;28;20487;-93
2022/01/16 13:06:51;;;;;;;50.03;27.23;;;4.80;99.90;;;;;;5065347;28;20198;-93
2022/01/16 13:09:19;;;;;;;47.17;27.30;;;4.90;99.90;;;;;;5065828;28;20446;-93
2022/01/16 13:11:49;;;;;;;51.43;28.60;;;4.70;99.90;;;;;;5060781;28;20550;-85
2022/01/16 13:14:19;;;;;;;47.50;26.60;;;4.70;99.90;;;;;;5056925;28;20436;-91
2022/01/16 13:16:48;;;;;;;51.53;28.13;;;4.70;99.90;;;;;;5058370;28;20209;-93
2022/01/16 13:19:18;;;;;;;51.97;27.93;;;4.60;99.90;;;;;;5065205;28;20450;-93
2022/01/16 13:21:58;;;;;;;50.13;27.03;;;4.60;99.90;;;;;;5057465;28;20217;-93
2022/01/16 13:24:52;;;;;;;44.73;26.43;;;4.70;99.90;;;;;;5058915;28;20475;-91
2022/01/16 13:27:29;;;;;;;48.07;27.80;;;4.80;99.90;;;;;;5063765;28;20432;-91
2022/01/16 13:30:03;;;;;;;47.37;27.30;;;4.90;99.90;;;;;;5069209;28;20538;-93
2022/01/16 13:32:52;;;;;;;46.27;28.37;;;4.90;99.90;;;;;;5065549;28;20258;-94
2022/01/16 13:35:40;;;;;;;53.10;28.53;;;5.00;99.90;;;;;;5067134;28;20206;-92
2022/01/16 13:38:27;;;;;;;47.03;26.63;;;5.00;99.90;;;;;;5063015;28;20591;-90
2022/01/16 13:40:59;;;;;;;46.63;26.50;;;5.00;99.90;;;;;;5064419;28;20289;-91
2022/01/16 13:43:31;;;;;;;46.47;27.10;;;4.90;99.90;;;;;;5061916;28;20285;-93